Redwood City — WUS6454 — position and weather

sailwx.info

Track history (hours):
 
Tides and Currents Weather Stations Pressure Air Temp Water Temp Dewpoint Dewpoint Depression Visibility Wind Speed Wind Dir Waves Ship Positions

Redwood City

Owner: STAR MARINE INC, BAINBRIDGE ISLAND, WA. More information available from US FCC via Universal Licensing System and Coast Guard Vessel Documentation Center.

Last reported at 2018-May-20 04:52 UTC. Time now 2018-May-24 02:26 UTC.
Position N 47°37' W 122°31'.

Length 21 m.

Type: Tug. MMSI: 366993250.

Date/timePositionNaut miles runAvg speedWind from/ knotsBaromVisibWave heightAir tempDewpointWater temp
2018-May-20 04:52N 47°37' W 122°31'0 0.1
2018-May-20 04:30N 47°37' W 122°31'4 8.1
2018-May-20 04:00N 47°34' W 122°28'510.1
2018-May-20 03:30N 47°29' W 122°30'510.7
2018-May-20 03:00N 47°24' W 122°32'510.3
2018-May-20 02:30N 47°19' W 122°30'4 7.0
2018-May-20 01:54N 47°17' W 122°24'1 3.2
2018-May-20 01:30N 47°17' W 122°26'0 0.1
2018-May-20 00:59N 47°17' W 122°26'0 0.1
2018-May-20 00:30N 47°17' W 122°26'0 0.2
2018-May-20 00:00N 47°17' W 122°26'0 0.1
2018-May-19 23:30N 47°17' W 122°26'0 0.0
2018-May-19 23:00N 47°17' W 122°26'1 1.1
2018-May-19 22:30N 47°17' W 122°25'0 0.3
2018-May-19 22:00N 47°17' W 122°25'0 0.7
2018-May-19 21:30N 47°17' W 122°25'1 0.3
2018-May-19 19:27N 47°17' W 122°26'3 7.3
2018-May-19 19:00N 47°21' W 122°26'4 8.7
2018-May-19 18:30N 47°25' W 122°23'510.2
2018-May-19 18:00N 47°29' W 122°26'510.3
2018-May-19 17:30N 47°34' W 122°28'4 7.4
2018-May-19 17:00N 47°37' W 122°31'  
Track history (hours):
 
Tides and Currents Weather Stations Pressure Air Temp Water Temp Dewpoint Dewpoint Depression Visibility Wind Speed Wind Dir Waves Ship Positions

Redwood City

Owner: STAR MARINE INC, BAINBRIDGE ISLAND, WA. More information available from US FCC via Universal Licensing System and Coast Guard Vessel Documentation Center.

Last reported at 2018-May-20 04:52 UTC. Time now 2018-May-24 02:26 UTC.
Position N 47°37' W 122°31'.

Length 21 m.

Type: Tug. MMSI: 366993250.

Date/timePositionNaut miles runAvg speedWind from/ knotsBaromVisibWave heightAir tempDewpointWater temp
2018-May-20 04:52N 47°37' W 122°31'0 0.1
2018-May-20 04:30N 47°37' W 122°31'4 8.1
2018-May-20 04:00N 47°34' W 122°28'510.1
2018-May-20 03:30N 47°29' W 122°30'510.7
2018-May-20 03:00N 47°24' W 122°32'510.3
2018-May-20 02:30N 47°19' W 122°30'4 7.0
2018-May-20 01:54N 47°17' W 122°24'1 3.2
2018-May-20 01:30N 47°17' W 122°26'0 0.1
2018-May-20 00:59N 47°17' W 122°26'0 0.1
2018-May-20 00:30N 47°17' W 122°26'0 0.2
2018-May-20 00:00N 47°17' W 122°26'0 0.1
2018-May-19 23:30N 47°17' W 122°26'0 0.0
2018-May-19 23:00N 47°17' W 122°26'1 1.1
2018-May-19 22:30N 47°17' W 122°25'0 0.3
2018-May-19 22:00N 47°17' W 122°25'0 0.7
2018-May-19 21:30N 47°17' W 122°25'1 0.3
2018-May-19 19:27N 47°17' W 122°26'3 7.3
2018-May-19 19:00N 47°21' W 122°26'4 8.7
2018-May-19 18:30N 47°25' W 122°23'510.2
2018-May-19 18:00N 47°29' W 122°26'510.3
2018-May-19 17:30N 47°34' W 122°28'4 7.4
2018-May-19 17:00N 47°37' W 122°31'  

Dump ship's entire track history